createdAt,value
2018-05-13T00:00:22.045Z,69.19
2018-05-13T00:00:53.624Z,68.98
2018-05-13T00:01:25.217Z,69.09
2018-05-13T00:01:56.830Z,69.18
2018-05-13T00:02:28.444Z,69.19
2018-05-13T00:03:00.026Z,69.05
2018-05-13T00:03:31.634Z,69.31
2018-05-13T00:04:03.205Z,69.81
2018-05-13T00:04:34.817Z,69.59
2018-05-13T00:05:06.446Z,69.22
2018-05-13T00:05:38.026Z,69.44
2018-05-13T00:06:09.593Z,69.61
2018-05-13T00:06:41.174Z,69.40
2018-05-13T00:07:12.774Z,69.66
2018-05-13T00:07:44.357Z,69.58
2018-05-13T00:08:15.952Z,70.11
2018-05-13T00:08:47.611Z,69.78
2018-05-13T00:09:19.184Z,69.87
2018-05-13T00:09:50.766Z,70.05
2018-05-13T00:10:22.357Z,69.93
2018-05-13T00:10:53.935Z,69.77
2018-05-13T00:11:25.533Z,69.74
2018-05-13T00:11:57.145Z,70.10
2018-05-13T00:12:28.749Z,69.82
2018-05-13T00:13:00.364Z,69.82
2018-05-13T00:13:31.970Z,70.13
2018-05-13T00:14:03.622Z,69.95
2018-05-13T00:14:35.221Z,70.05
2018-05-13T00:15:06.797Z,70.16
2018-05-13T00:15:38.381Z,70.08
2018-05-13T00:16:10.008Z,70.26
2018-05-13T00:16:41.576Z,70.15
2018-05-13T00:17:13.158Z,69.91
2018-05-13T00:17:44.761Z,69.91
2018-05-13T00:18:16.375Z,70.31
2018-05-13T00:18:47.962Z,70.19
2018-05-13T00:19:19.556Z,70.48
2018-05-13T00:19:51.138Z,70.33
2018-05-13T00:20:22.731Z,70.17
2018-05-13T00:20:54.334Z,70.67
2018-05-13T00:21:26.049Z,70.70
2018-05-13T00:21:57.654Z,70.40
2018-05-13T00:22:29.258Z,70.37
2018-05-13T00:23:00.836Z,70.13
2018-05-13T00:23:32.438Z,70.14
2018-05-13T00:24:04.032Z,70.44
2018-05-13T00:24:35.643Z,70.27
2018-05-13T00:25:07.230Z,70.21
2018-05-13T00:25:38.839Z,69.95
2018-05-13T00:26:10.412Z,70.32
2018-05-13T00:26:42.058Z,70.00
2018-05-13T00:27:13.646Z,70.03
2018-05-13T00:27:45.236Z,69.92
2018-05-13T00:28:16.828Z,69.89
2018-05-13T00:28:48.419Z,70.04
2018-05-13T00:29:20.001Z,70.07
2018-05-13T00:29:51.614Z,69.96
2018-05-13T00:30:23.198Z,69.95
2018-05-13T00:30:54.815Z,70.05
2018-05-13T00:31:26.471Z,70.14
2018-05-13T00:31:58.055Z,69.88
2018-05-13T00:32:29.623Z,70.01
2018-05-13T00:33:01.216Z,70.28
2018-05-13T00:33:32.821Z,70.08
2018-05-13T00:34:04.410Z,69.68
2018-05-13T00:34:35.994Z,69.69
2018-05-13T00:35:07.585Z,69.73
2018-05-13T00:35:39.200Z,69.53
2018-05-13T00:36:10.792Z,69.80
2018-05-13T00:36:42.367Z,69.68
2018-05-13T00:37:13.958Z,69.74
2018-05-13T00:37:45.562Z,69.70
2018-05-13T00:38:17.166Z,69.55
2018-05-13T00:38:48.784Z,69.48
2018-05-13T00:39:20.362Z,69.74
2018-05-13T00:39:51.939Z,69.82
2018-05-13T00:40:23.517Z,69.64
2018-05-13T00:40:55.112Z,69.76
2018-05-13T00:41:28.114Z,69.97
2018-05-13T00:42:00.125Z,69.55
2018-05-13T00:42:34.862Z,70.08
2018-05-13T00:43:06.462Z,69.63
2018-05-13T00:43:38.174Z,69.88
2018-05-13T00:44:09.745Z,69.77
2018-05-13T00:44:41.339Z,69.79
2018-05-13T00:45:12.918Z,69.91
2018-05-13T00:45:44.526Z,69.71
2018-05-13T00:46:16.381Z,70.01
2018-05-13T00:46:48.083Z,69.79
2018-05-13T00:47:19.656Z,69.98
2018-05-13T00:47:51.255Z,70.08
2018-05-13T00:48:32.870Z,70.10
2018-05-13T00:49:04.456Z,70.00
2018-05-13T00:49:36.062Z,69.89
2018-05-13T00:50:07.633Z,69.83
2018-05-13T00:50:39.234Z,69.90
2018-05-13T00:51:10.807Z,70.05
2018-05-13T00:51:42.390Z,70.06
2018-05-13T00:52:13.985Z,69.96
2018-05-13T00:52:45.589Z,69.91
2018-05-13T00:53:17.198Z,70.03
2018-05-13T00:53:48.772Z,69.86
2018-05-13T00:54:20.340Z,70.21
2018-05-13T00:54:51.985Z,69.81
2018-05-13T00:55:23.584Z,69.89
2018-05-13T00:55:55.190Z,69.97
2018-05-13T00:56:26.778Z,69.93
2018-05-13T00:56:58.399Z,69.82
2018-05-13T00:57:29.964Z,69.80
2018-05-13T00:58:01.550Z,69.79
2018-05-13T00:58:33.135Z,69.93
2018-05-13T00:59:04.718Z,69.89
2018-05-13T00:59:36.298Z,69.79
2018-05-13T01:00:07.867Z,69.94
2018-05-13T01:00:39.448Z,69.80
2018-05-13T01:01:11.039Z,69.75
2018-05-13T01:01:42.626Z,69.93
2018-05-13T01:02:14.260Z,69.72
2018-05-13T01:02:45.965Z,69.89
2018-05-13T01:03:17.512Z,69.83
2018-05-13T01:03:49.118Z,69.79
2018-05-13T01:04:20.689Z,69.89
2018-05-13T01:04:52.294Z,69.82
2018-05-13T01:05:23.882Z,69.95
2018-05-13T01:05:55.448Z,70.00
2018-05-13T01:06:27.050Z,69.76
2018-05-13T01:06:58.621Z,70.06
2018-05-13T01:07:30.266Z,70.21
2018-05-13T01:08:01.864Z,70.21
2018-05-13T01:08:33.464Z,70.23
2018-05-13T01:09:05.069Z,70.03
2018-05-13T01:09:36.678Z,70.11
2018-05-13T01:10:08.325Z,70.21
2018-05-13T01:10:39.942Z,70.09
2018-05-13T01:11:11.555Z,70.48
2018-05-13T01:11:43.138Z,70.12
2018-05-13T01:12:14.742Z,70.29
2018-05-13T01:12:46.326Z,70.10
2018-05-13T01:13:17.925Z,70.29
2018-05-13T01:13:49.537Z,70.17
2018-05-13T01:14:21.126Z,70.25
2018-05-13T01:14:52.721Z,70.17
2018-05-13T01:15:24.300Z,70.10
2018-05-13T01:15:55.864Z,70.29
2018-05-13T01:16:27.442Z,70.31
2018-05-13T01:16:59.086Z,70.20
2018-05-13T01:17:30.693Z,70.08
2018-05-13T01:18:02.304Z,70.37
2018-05-13T01:18:33.951Z,70.18
2018-05-13T01:19:05.545Z,70.21
2018-05-13T01:19:37.140Z,70.30
2018-05-13T01:20:08.790Z,70.21
2018-05-13T01:20:40.383Z,70.16
2018-05-13T01:21:11.990Z,70.19
2018-05-13T01:21:43.580Z,70.05
2018-05-13T01:22:15.176Z,70.19
2018-05-13T01:22:46.786Z,69.98
2018-05-13T01:23:18.365Z,70.07
2018-05-13T01:23:49.974Z,70.00
2018-05-13T01:24:21.577Z,70.06
2018-05-13T01:24:53.203Z,69.95
2018-05-13T01:25:24.786Z,70.08
2018-05-13T01:25:56.352Z,70.00
2018-05-13T01:26:27.957Z,69.95
2018-05-13T01:26:59.532Z,70.15
2018-05-13T01:27:31.175Z,70.14
2018-05-13T01:28:02.787Z,70.07
2018-05-13T01:28:34.374Z,70.06
2018-05-13T01:29:05.972Z,69.97
2018-05-13T01:29:37.557Z,70.06
2018-05-13T01:30:09.153Z,70.13
2018-05-13T01:30:40.748Z,70.17
2018-05-13T01:31:12.320Z,70.03
2018-05-13T01:31:43.921Z,70.16
2018-05-13T01:32:15.530Z,70.03
2018-05-13T01:32:47.145Z,69.90
2018-05-13T01:33:18.722Z,70.05
2018-05-13T01:33:50.297Z,70.02
2018-05-13T01:34:21.896Z,70.14
2018-05-13T01:34:53.510Z,69.87
2018-05-13T01:35:25.102Z,69.88
2018-05-13T01:35:56.672Z,69.96
2018-05-13T01:36:28.264Z,70.50
2018-05-13T01:36:59.895Z,70.21
2018-05-13T01:37:31.506Z,70.05
2018-05-13T01:38:03.166Z,70.02
2018-05-13T01:38:34.760Z,70.04
2018-05-13T01:39:06.370Z,69.96
2018-05-13T01:39:37.976Z,69.94
2018-05-13T01:40:09.572Z,69.99
2018-05-13T01:40:41.172Z,70.07
2018-05-13T01:41:12.782Z,69.90
2018-05-13T01:41:44.376Z,69.98
2018-05-13T01:42:16.002Z,69.92
2018-05-13T01:42:47.592Z,69.87
2018-05-13T01:43:19.305Z,70.05
2018-05-13T01:43:50.866Z,69.94
2018-05-13T01:44:22.454Z,69.94
2018-05-13T01:44:54.020Z,69.91
2018-05-13T01:45:25.589Z,70.01
2018-05-13T01:45:57.268Z,69.91
2018-05-13T01:46:30.184Z,69.86
2018-05-13T01:47:01.822Z,69.83
2018-05-13T01:47:33.402Z,69.91
2018-05-13T01:48:04.969Z,70.07
2018-05-13T01:48:36.605Z,69.97
2018-05-13T01:49:08.176Z,69.77
2018-05-13T01:49:39.775Z,69.93
2018-05-13T01:50:13.317Z,69.83
2018-05-13T01:50:47.488Z,69.80
2018-05-13T01:51:19.093Z,69.97
2018-05-13T01:51:50.702Z,69.83
2018-05-13T01:52:22.286Z,69.88
2018-05-13T01:52:53.890Z,69.88
2018-05-13T01:53:25.517Z,69.79
2018-05-13T01:53:57.117Z,69.81
2018-05-13T01:54:28.711Z,70.02
2018-05-13T01:55:00.313Z,69.87
2018-05-13T01:55:31.902Z,69.87
2018-05-13T01:56:03.486Z,69.85
2018-05-13T01:56:35.064Z,69.96
2018-05-13T01:57:06.746Z,69.85
2018-05-13T01:57:38.307Z,70.15
2018-05-13T01:58:09.894Z,69.84
2018-05-13T01:58:41.468Z,69.92
2018-05-13T01:59:13.070Z,69.86
2018-05-13T01:59:44.673Z,69.90
2018-05-13T02:00:16.248Z,70.01
2018-05-13T02:00:47.836Z,69.92
2018-05-13T02:01:21.362Z,69.92
2018-05-13T02:01:53.047Z,69.83
2018-05-13T02:02:24.649Z,70.00
2018-05-13T02:02:58.183Z,69.97
2018-05-13T02:03:29.777Z,70.14
2018-05-13T02:04:01.362Z,70.12
2018-05-13T02:04:32.966Z,69.99
2018-05-13T02:05:05.266Z,69.98
2018-05-13T02:05:36.871Z,69.91
2018-05-13T02:06:08.485Z,69.89
2018-05-13T02:06:40.062Z,69.78
2018-05-13T02:07:11.671Z,70.05
2018-05-13T02:07:43.254Z,69.93
2018-05-13T02:08:14.834Z,70.02
2018-05-13T02:08:48.619Z,70.02
2018-05-13T02:09:20.349Z,70.02
2018-05-13T02:09:51.929Z,69.89
2018-05-13T02:10:23.604Z,69.98
2018-05-13T02:10:55.146Z,69.96
2018-05-13T02:11:26.739Z,69.93
2018-05-13T02:11:58.308Z,69.91
2018-05-13T02:12:29.889Z,70.00
2018-05-13T02:13:01.481Z,69.91
2018-05-13T02:13:33.085Z,69.93
2018-05-13T02:14:04.738Z,69.97
2018-05-13T02:14:36.322Z,69.97
2018-05-13T02:15:07.925Z,69.83
2018-05-13T02:15:39.510Z,69.92
2018-05-13T02:16:11.101Z,69.90
2018-05-13T02:16:42.683Z,70.03
2018-05-13T02:17:14.259Z,69.95
2018-05-13T02:17:45.866Z,70.01
2018-05-13T02:18:17.454Z,69.91
2018-05-13T02:18:49.069Z,69.96
2018-05-13T02:19:20.660Z,69.92
2018-05-13T02:19:52.265Z,69.86
2018-05-13T02:20:23.888Z,69.86
2018-05-13T02:20:55.483Z,69.86
2018-05-13T02:21:27.086Z,69.89
2018-05-13T02:21:58.674Z,69.86
2018-05-13T02:22:30.274Z,69.85
2018-05-13T02:23:01.872Z,69.82
2018-05-13T02:23:33.458Z,69.89
2018-05-13T02:24:05.038Z,69.85
2018-05-13T02:24:36.641Z,69.86
2018-05-13T02:25:08.884Z,69.91
2018-05-13T02:25:40.528Z,69.81
2018-05-13T02:26:12.124Z,69.80
2018-05-13T02:26:43.719Z,69.82
2018-05-13T02:27:15.297Z,69.91
2018-05-13T02:27:46.871Z,69.76
2018-05-13T02:28:18.478Z,69.70
2018-05-13T02:28:50.070Z,69.77
2018-05-13T02:29:21.659Z,69.87
2018-05-13T02:29:53.236Z,69.71
2018-05-13T02:30:24.818Z,69.84
2018-05-13T02:30:56.388Z,69.83
2018-05-13T02:31:27.970Z,69.93
2018-05-13T02:31:59.561Z,69.81
2018-05-13T02:32:31.170Z,69.84
2018-05-13T02:33:04.027Z,69.99
2018-05-13T02:33:35.812Z,69.93
2018-05-13T02:34:07.423Z,69.85
2018-05-13T02:34:39.033Z,70.21
2018-05-13T02:35:10.641Z,69.84
2018-05-13T02:35:42.231Z,69.99
2018-05-13T02:36:13.835Z,70.09
2018-05-13T02:36:45.414Z,69.89
2018-05-13T02:37:17.029Z,69.96
2018-05-13T02:37:48.630Z,70.11
2018-05-13T02:38:20.218Z,70.14
2018-05-13T02:38:51.835Z,69.96
2018-05-13T02:39:23.448Z,70.07
2018-05-13T02:39:55.050Z,69.84
2018-05-13T02:40:26.663Z,69.86
2018-05-13T02:40:58.252Z,69.81
2018-05-13T02:41:29.833Z,69.84
2018-05-13T02:42:01.416Z,69.93
2018-05-13T02:42:33.062Z,69.95
2018-05-13T02:43:04.646Z,69.87
2018-05-13T02:43:38.482Z,69.79
2018-05-13T02:44:10.062Z,69.83
2018-05-13T02:44:41.652Z,69.84
2018-05-13T02:45:13.263Z,69.79
2018-05-13T02:45:44.879Z,69.89
2018-05-13T02:46:16.486Z,70.00
2018-05-13T02:46:48.095Z,69.86
2018-05-13T02:47:19.702Z,69.73
2018-05-13T02:47:51.314Z,69.77
2018-05-13T02:48:22.912Z,69.78
2018-05-13T02:48:54.578Z,69.78
2018-05-13T02:49:26.150Z,69.74
2018-05-13T02:49:57.753Z,69.94
2018-05-13T02:50:29.366Z,69.82
2018-05-13T02:51:00.946Z,69.78
2018-05-13T02:51:32.526Z,69.78
2018-05-13T02:52:04.116Z,69.75
2018-05-13T02:52:35.722Z,69.80
2018-05-13T02:53:07.330Z,69.78
2018-05-13T02:53:38.952Z,69.71
2018-05-13T02:54:10.618Z,69.89
2018-05-13T02:54:42.222Z,69.80
2018-05-13T02:55:13.796Z,69.76
2018-05-13T02:55:49.173Z,69.87
2018-05-13T02:56:20.770Z,69.73
2018-05-13T02:56:52.374Z,69.72
2018-05-13T02:57:23.980Z,69.81
2018-05-13T02:57:56.054Z,69.80
2018-05-13T02:58:29.193Z,69.87
2018-05-13T02:59:00.765Z,69.77
2018-05-13T02:59:32.419Z,69.87
2018-05-13T03:00:04.030Z,69.84
2018-05-13T03:00:35.638Z,69.80
2018-05-13T03:01:07.218Z,69.82
2018-05-13T03:01:38.818Z,69.75
2018-05-13T03:02:10.406Z,69.96
2018-05-13T03:02:42.014Z,69.99
2018-05-13T03:03:13.620Z,69.92
2018-05-13T03:03:45.197Z,69.95
2018-05-13T03:04:16.776Z,69.95
2018-05-13T03:04:48.412Z,69.91
2018-05-13T03:05:19.990Z,69.95
2018-05-13T03:05:51.594Z,70.02
2018-05-13T03:06:23.191Z,70.10
2018-05-13T03:06:54.806Z,69.97
2018-05-13T03:07:26.409Z,70.03
2018-05-13T03:07:58.013Z,70.17
2018-05-13T03:08:29.608Z,69.99
2018-05-13T03:09:01.185Z,70.00
2018-05-13T03:09:32.770Z,69.99
2018-05-13T03:10:04.427Z,70.08
2018-05-13T03:10:36.016Z,70.16
2018-05-13T03:11:07.626Z,70.22
2018-05-13T03:11:39.328Z,70.05
2018-05-13T03:12:10.871Z,70.12
2018-05-13T03:12:42.454Z,70.30
2018-05-13T03:13:14.053Z,70.28
2018-05-13T03:13:45.657Z,70.17
2018-05-13T03:14:17.262Z,70.21
2018-05-13T03:14:48.865Z,70.24
2018-05-13T03:15:20.440Z,70.44
2018-05-13T03:15:52.019Z,70.28
2018-05-13T03:16:23.598Z,70.38
2018-05-13T03:16:55.214Z,70.54
2018-05-13T03:17:26.809Z,70.70
2018-05-13T03:17:58.423Z,70.73
2018-05-13T03:18:30.017Z,70.80
2018-05-13T03:19:01.636Z,70.51
2018-05-13T03:19:33.221Z,70.80
2018-05-13T03:20:04.850Z,70.85
2018-05-13T03:20:36.445Z,70.86
2018-05-13T03:21:08.034Z,70.50
2018-05-13T03:21:39.623Z,70.61
2018-05-13T03:22:11.206Z,70.79
2018-05-13T03:22:42.786Z,70.61
2018-05-13T03:23:14.362Z,70.57
2018-05-13T03:23:45.970Z,70.55
2018-05-13T03:24:17.576Z,70.62
2018-05-13T03:24:49.229Z,70.64
2018-05-13T03:25:20.810Z,70.56
2018-05-13T03:25:52.376Z,70.78
2018-05-13T03:26:23.958Z,70.63
2018-05-13T03:26:55.578Z,70.59
2018-05-13T03:27:27.158Z,70.78
2018-05-13T03:27:58.734Z,70.84
2018-05-13T03:28:30.314Z,71.01
2018-05-13T03:29:01.914Z,70.67
2018-05-13T03:29:33.521Z,70.73
2018-05-13T03:30:05.132Z,70.57
2018-05-13T03:30:36.776Z,70.72
2018-05-13T03:31:08.349Z,70.73
2018-05-13T03:31:39.930Z,70.71
2018-05-13T03:32:11.533Z,70.61
2018-05-13T03:32:43.146Z,70.80
2018-05-13T03:33:14.749Z,70.87
2018-05-13T03:33:46.358Z,70.75
2018-05-13T03:34:17.964Z,70.59
2018-05-13T03:34:49.578Z,70.66
2018-05-13T03:35:21.166Z,70.66
2018-05-13T03:35:52.830Z,70.56
2018-05-13T03:36:24.430Z,70.54
2018-05-13T03:36:56.013Z,70.43
2018-05-13T03:37:27.597Z,70.53
2018-05-13T03:37:59.198Z,70.43
2018-05-13T03:38:30.810Z,70.58
2018-05-13T03:39:02.421Z,70.51
2018-05-13T03:39:34.014Z,70.48
2018-05-13T03:40:05.594Z,70.43
2018-05-13T03:40:37.161Z,70.33
2018-05-13T03:41:08.780Z,70.37
2018-05-13T03:41:40.349Z,70.27
2018-05-13T03:42:11.945Z,70.54
2018-05-13T03:42:43.530Z,70.51
2018-05-13T03:43:15.158Z,70.41
2018-05-13T03:43:46.761Z,70.34
2018-05-13T03:44:18.698Z,70.42
2018-05-13T03:44:50.467Z,70.35
2018-05-13T03:45:22.048Z,70.26
2018-05-13T03:45:53.639Z,70.37
2018-05-13T03:46:25.352Z,70.39
2018-05-13T03:46:56.955Z,70.27
2018-05-13T03:47:28.542Z,70.17
2018-05-13T03:48:00.127Z,70.37
2018-05-13T03:48:31.726Z,70.36
2018-05-13T03:49:03.320Z,70.26
2018-05-13T03:49:34.931Z,70.20
2018-05-13T03:50:06.522Z,70.40
2018-05-13T03:50:38.088Z,70.26
2018-05-13T03:51:09.674Z,70.40
2018-05-13T03:51:41.285Z,70.14
2018-05-13T03:52:12.866Z,70.14
2018-05-13T03:52:44.499Z,70.25
2018-05-13T03:53:16.082Z,70.06
2018-05-13T03:53:47.653Z,70.10
2018-05-13T03:54:19.254Z,70.04
2018-05-13T03:54:50.839Z,70.10
2018-05-13T03:55:22.447Z,70.39
2018-05-13T03:55:54.030Z,70.21
2018-05-13T03:56:25.740Z,70.11
2018-05-13T03:56:57.313Z,70.10
2018-05-13T03:57:28.914Z,70.00
2018-05-13T03:58:00.562Z,70.03
2018-05-13T03:58:32.153Z,70.09
2018-05-13T03:59:03.731Z,70.09
2018-05-13T03:59:35.318Z,70.00
2018-05-13T04:00:06.925Z,70.02
2018-05-13T04:00:38.510Z,69.87
2018-05-13T04:01:10.110Z,69.98
2018-05-13T04:01:41.690Z,70.16
2018-05-13T04:02:13.334Z,70.08
2018-05-13T04:02:44.922Z,69.99
2018-05-13T04:03:16.498Z,70.03
2018-05-13T04:03:48.142Z,69.95
2018-05-13T04:04:19.749Z,69.89
2018-05-13T04:04:51.343Z,69.65
2018-05-13T04:05:22.970Z,69.55
2018-05-13T04:05:54.568Z,69.50
2018-05-13T04:06:26.154Z,69.21
2018-05-13T04:06:57.757Z,69.03
2018-05-13T04:07:29.442Z,68.48
2018-05-13T04:08:01.018Z,67.89
2018-05-13T04:08:32.665Z,67.34
2018-05-13T04:09:04.247Z,66.73
2018-05-13T04:09:35.853Z,66.26
2018-05-13T04:10:07.448Z,65.85
2018-05-13T04:10:39.030Z,65.55
2018-05-13T04:11:10.634Z,65.37
2018-05-13T04:11:42.237Z,65.30
2018-05-13T04:12:13.833Z,65.25
2018-05-13T04:12:45.438Z,65.09
2018-05-13T04:13:17.089Z,64.91
2018-05-13T04:13:48.693Z,64.90
2018-05-13T04:14:20.286Z,64.90
2018-05-13T04:14:51.885Z,64.93
2018-05-13T04:15:23.460Z,64.80
2018-05-13T04:15:55.038Z,64.72
2018-05-13T04:16:26.676Z,64.75
2018-05-13T04:16:58.282Z,64.60
2018-05-13T04:17:29.877Z,64.53
2018-05-13T04:18:01.486Z,64.48
2018-05-13T04:18:33.934Z,64.31
2018-05-13T04:19:05.522Z,64.14
2018-05-13T04:19:37.110Z,63.97
2018-05-13T04:20:08.754Z,63.91
2018-05-13T04:20:40.339Z,63.75
2018-05-13T04:21:11.926Z,63.54
2018-05-13T04:21:43.514Z,63.42
2018-05-13T04:22:15.151Z,63.35
2018-05-13T04:22:46.742Z,63.09
2018-05-13T04:23:18.333Z,62.90
2018-05-13T04:23:49.935Z,62.68
2018-05-13T04:24:21.549Z,62.50
2018-05-13T04:24:53.129Z,62.35
2018-05-13T04:25:24.764Z,62.20
2018-05-13T04:25:56.350Z,62.45
2018-05-13T04:26:27.929Z,62.32
2018-05-13T04:26:59.533Z,62.20
2018-05-13T04:27:31.128Z,62.37
2018-05-13T04:28:02.742Z,62.28
2018-05-13T04:28:34.349Z,62.22
2018-05-13T04:29:05.944Z,62.37
2018-05-13T04:29:37.521Z,62.34
2018-05-13T04:30:09.110Z,62.50
2018-05-13T04:30:40.753Z,62.69
2018-05-13T04:31:12.361Z,62.64
2018-05-13T04:31:44.029Z,62.56
2018-05-13T04:32:15.647Z,62.62
2018-05-13T04:32:47.234Z,63.20
2018-05-13T04:33:18.810Z,62.74
2018-05-13T04:33:50.395Z,62.87
2018-05-13T04:34:21.965Z,62.90
2018-05-13T04:34:53.551Z,63.01
2018-05-13T04:35:25.144Z,63.03
2018-05-13T04:35:56.740Z,62.96
2018-05-13T04:36:28.323Z,62.62
2018-05-13T04:36:59.912Z,62.58
2018-05-13T04:37:31.508Z,62.61
2018-05-13T04:38:03.121Z,62.66
2018-05-13T04:38:34.718Z,62.91
2018-05-13T04:39:06.306Z,63.24
2018-05-13T04:39:37.938Z,63.44
2018-05-13T04:40:09.501Z,63.62
2018-05-13T04:40:41.096Z,63.96
2018-05-13T04:41:12.708Z,64.29
2018-05-13T04:41:44.349Z,64.58
2018-05-13T04:42:15.929Z,65.05
2018-05-13T04:42:47.529Z,65.41
2018-05-13T04:43:19.144Z,65.82
2018-05-13T04:43:50.738Z,66.28
2018-05-13T04:44:22.342Z,66.69
2018-05-13T04:44:53.913Z,66.95
2018-05-13T04:45:25.518Z,67.40
2018-05-13T04:45:57.121Z,67.57
2018-05-13T04:46:28.749Z,67.78
2018-05-13T04:47:00.326Z,67.98
2018-05-13T04:47:31.902Z,68.07
2018-05-13T04:48:03.501Z,68.23
2018-05-13T04:48:35.131Z,68.49
2018-05-13T04:49:06.720Z,68.57
2018-05-13T04:49:38.329Z,68.63
2018-05-13T04:50:09.904Z,68.73
2018-05-13T04:50:41.506Z,68.83
2018-05-13T04:51:13.158Z,68.88
2018-05-13T04:51:44.771Z,69.17
2018-05-13T04:52:16.353Z,69.26
2018-05-13T04:52:47.920Z,69.19
2018-05-13T04:53:19.500Z,69.28
2018-05-13T04:53:51.101Z,69.36
2018-05-13T04:54:22.681Z,69.41
2018-05-13T04:54:54.288Z,69.38
2018-05-13T04:55:25.879Z,69.45
2018-05-13T04:55:57.480Z,69.81
2018-05-13T04:56:29.092Z,69.99
2018-05-13T04:57:00.674Z,69.85
2018-05-13T04:57:32.278Z,69.86
2018-05-13T04:58:03.852Z,69.86
2018-05-13T04:58:35.434Z,69.82
2018-05-13T04:59:07.024Z,69.89
2018-05-13T04:59:38.620Z,69.95
2018-05-13T05:00:10.221Z,69.98
2018-05-13T05:00:41.829Z,69.93
2018-05-13T05:01:13.477Z,70.02
2018-05-13T05:01:45.082Z,70.24
2018-05-13T05:02:16.673Z,70.12
2018-05-13T05:02:48.262Z,69.94
2018-05-13T05:03:19.853Z,69.96
2018-05-13T05:03:51.448Z,70.07
2018-05-13T05:04:23.040Z,69.96
2018-05-13T05:04:54.717Z,70.02
2018-05-13T05:05:26.309Z,69.96
2018-05-13T05:05:57.904Z,70.07
2018-05-13T05:06:29.518Z,70.02
2018-05-13T05:07:01.166Z,69.97
2018-05-13T05:07:32.754Z,70.00
2018-05-13T05:08:04.389Z,70.04
2018-05-13T05:08:35.980Z,70.15
2018-05-13T05:09:07.590Z,70.14
2018-05-13T05:09:39.185Z,70.13
2018-05-13T05:10:10.786Z,70.12
2018-05-13T05:10:42.373Z,70.46
2018-05-13T05:11:13.978Z,70.31
2018-05-13T05:11:45.582Z,70.29
2018-05-13T05:12:17.196Z,70.39
2018-05-13T05:12:48.801Z,70.43
2018-05-13T05:13:20.413Z,70.26
2018-05-13T05:13:51.984Z,70.42
2018-05-13T05:14:23.566Z,70.41
2018-05-13T05:14:55.165Z,70.35
2018-05-13T05:15:26.778Z,70.31
2018-05-13T05:15:58.385Z,70.27
2018-05-13T05:16:29.964Z,70.55
2018-05-13T05:17:01.551Z,70.32
2018-05-13T05:17:33.163Z,70.29
2018-05-13T05:18:04.777Z,70.44
2018-05-13T05:18:36.425Z,70.25
2018-05-13T05:19:08.038Z,70.28
2018-05-13T05:19:39.651Z,70.32
2018-05-13T05:20:11.238Z,70.65
2018-05-13T05:20:42.822Z,70.47
2018-05-13T05:21:14.421Z,70.47
2018-05-13T05:21:46.029Z,70.47
2018-05-13T05:22:17.610Z,70.57
2018-05-13T05:22:49.201Z,70.54
2018-05-13T05:23:20.845Z,70.61
2018-05-13T05:23:52.439Z,70.37
2018-05-13T05:24:24.038Z,70.74
2018-05-13T05:24:55.642Z,70.43
2018-05-13T05:25:27.229Z,70.40
2018-05-13T05:25:58.873Z,70.60
2018-05-13T05:26:30.458Z,70.54
2018-05-13T05:27:02.038Z,70.65
2018-05-13T05:27:33.672Z,70.63
2018-05-13T05:28:05.259Z,70.55
2018-05-13T05:28:36.874Z,70.49
2018-05-13T05:29:08.486Z,70.39
2018-05-13T05:29:40.083Z,70.50
2018-05-13T05:30:11.670Z,70.49
2018-05-13T05:30:43.244Z,70.53
2018-05-13T05:31:14.822Z,70.74
2018-05-13T05:31:46.398Z,70.79
2018-05-13T05:32:18.003Z,70.61
2018-05-13T05:32:49.573Z,70.67
2018-05-13T05:33:21.169Z,70.55
2018-05-13T05:33:52.789Z,70.69
2018-05-13T05:34:24.459Z,70.67
2018-05-13T05:34:55.990Z,70.55
2018-05-13T05:35:27.570Z,70.54
2018-05-13T05:35:59.141Z,70.55
2018-05-13T05:36:30.708Z,70.57
2018-05-13T05:37:02.277Z,70.55
2018-05-13T05:37:33.849Z,70.68
2018-05-13T05:38:05.430Z,70.58
2018-05-13T05:38:37.072Z,70.54
2018-05-13T05:39:08.674Z,70.77
2018-05-13T05:39:40.249Z,70.78
2018-05-13T05:40:11.827Z,70.54
2018-05-13T05:40:43.437Z,70.58
2018-05-13T05:41:15.028Z,70.61
2018-05-13T05:41:46.638Z,70.59
2018-05-13T05:42:18.215Z,70.55
2018-05-13T05:42:49.784Z,70.65
2018-05-13T05:43:21.366Z,70.59
2018-05-13T05:43:53.018Z,70.69
2018-05-13T05:44:24.599Z,70.57
2018-05-13T05:44:56.202Z,70.63
2018-05-13T05:45:27.821Z,70.50
2018-05-13T05:45:59.428Z,70.55
2018-05-13T05:46:31.017Z,70.64
2018-05-13T05:47:02.619Z,70.60
2018-05-13T05:47:34.230Z,70.61
2018-05-13T05:48:05.840Z,70.58
2018-05-13T05:48:37.422Z,70.51
2018-05-13T05:49:09.065Z,70.62
2018-05-13T05:49:40.643Z,70.53
2018-05-13T05:50:12.226Z,70.58
2018-05-13T05:50:43.806Z,70.59
2018-05-13T05:51:15.375Z,70.62
2018-05-13T05:51:46.986Z,70.86
2018-05-13T05:52:18.607Z,70.76
2018-05-13T05:52:50.221Z,70.63
2018-05-13T05:53:21.806Z,70.50
2018-05-13T05:53:53.406Z,70.55
2018-05-13T05:54:25.049Z,70.57
2018-05-13T05:54:56.630Z,70.52
2018-05-13T05:55:28.214Z,70.51
2018-05-13T05:55:59.798Z,70.58
2018-05-13T05:56:31.365Z,70.54
2018-05-13T05:57:02.941Z,70.65
2018-05-13T05:57:34.549Z,70.49
2018-05-13T05:58:06.157Z,70.55
2018-05-13T05:58:37.772Z,70.50
2018-05-13T05:59:09.345Z,70.49
2018-05-13T05:59:40.922Z,70.75
2018-05-13T06:00:12.497Z,70.62
2018-05-13T06:00:44.070Z,70.52
2018-05-13T06:01:15.650Z,70.57
2018-05-13T06:01:47.258Z,70.49
2018-05-13T06:02:18.847Z,70.56
2018-05-13T06:02:50.454Z,70.58
2018-05-13T06:03:22.164Z,70.63
2018-05-13T06:03:53.705Z,70.58
2018-05-13T06:04:25.365Z,70.62
2018-05-13T06:04:56.988Z,70.57
2018-05-13T06:05:28.566Z,70.55
2018-05-13T06:06:00.146Z,70.72
2018-05-13T06:06:31.758Z,70.73
2018-05-13T06:07:03.374Z,70.65
2018-05-13T06:07:34.962Z,70.52
2018-05-13T06:08:06.563Z,70.62
2018-05-13T06:08:38.142Z,70.56
2018-05-13T06:09:09.770Z,70.56
2018-05-13T06:09:41.348Z,70.58
2018-05-13T06:10:12.990Z,70.61
2018-05-13T06:10:44.593Z,70.57
2018-05-13T06:11:16.179Z,70.57
2018-05-13T06:11:47.777Z,70.43
2018-05-13T06:12:19.416Z,70.48
2018-05-13T06:12:50.990Z,70.49
2018-05-13T06:13:22.565Z,70.49
2018-05-13T06:13:54.154Z,70.35
2018-05-13T06:14:25.746Z,70.49
2018-05-13T06:14:57.412Z,70.40
2018-05-13T06:15:28.994Z,70.49
2018-05-13T06:16:00.593Z,70.31
2018-05-13T06:16:32.192Z,70.27
2018-05-13T06:17:03.778Z,70.24
2018-05-13T06:17:35.376Z,70.12
2018-05-13T06:18:06.986Z,70.11
2018-05-13T06:18:38.585Z,70.23
2018-05-13T06:19:10.189Z,70.07
2018-05-13T06:19:41.777Z,70.16
2018-05-13T06:20:13.436Z,70.21
2018-05-13T06:20:45.009Z,70.01
2018-05-13T06:21:16.591Z,69.95
2018-05-13T06:21:48.183Z,69.87
2018-05-13T06:22:19.776Z,69.90
2018-05-13T06:22:51.372Z,69.85
2018-05-13T06:23:22.957Z,69.70
2018-05-13T06:23:54.542Z,69.74
2018-05-13T06:24:26.198Z,69.70
2018-05-13T06:24:57.809Z,69.93
2018-05-13T06:25:29.418Z,69.83
2018-05-13T06:26:01.027Z,69.76
2018-05-13T06:26:32.621Z,69.76
2018-05-13T06:27:04.216Z,69.76
2018-05-13T06:27:35.826Z,69.74
2018-05-13T06:28:07.442Z,69.58
2018-05-13T06:28:39.030Z,69.72
2018-05-13T06:29:10.621Z,69.69
2018-05-13T06:29:42.246Z,69.43
2018-05-13T06:30:13.829Z,69.46
2018-05-13T06:30:45.469Z,69.56
2018-05-13T06:31:17.073Z,69.59
2018-05-13T06:31:48.691Z,69.58
2018-05-13T06:32:20.249Z,69.40
2018-05-13T06:32:51.858Z,69.42
2018-05-13T06:33:23.438Z,69.70
2018-05-13T06:33:55.046Z,69.56
2018-05-13T06:34:26.678Z,69.55
2018-05-13T06:34:58.272Z,69.49
2018-05-13T06:35:29.868Z,69.59
2018-05-13T06:36:01.474Z,69.54
2018-05-13T06:36:33.082Z,69.43
2018-05-13T06:37:04.662Z,69.54
2018-05-13T06:37:36.265Z,69.58
2018-05-13T06:38:07.853Z,69.54
2018-05-13T06:38:39.435Z,69.54
2018-05-13T06:39:11.042Z,69.56
2018-05-13T06:39:42.777Z,69.63
2018-05-13T06:40:14.302Z,69.52
2018-05-13T06:40:45.909Z,69.52
2018-05-13T06:41:17.488Z,69.52
2018-05-13T06:41:49.068Z,69.51
2018-05-13T06:42:20.674Z,69.40
2018-05-13T06:42:52.278Z,69.37
2018-05-13T06:43:23.870Z,69.32
2018-05-13T06:43:55.440Z,69.29
2018-05-13T06:44:27.030Z,69.51
2018-05-13T06:44:58.618Z,69.34
2018-05-13T06:45:30.188Z,69.27
2018-05-13T06:46:01.779Z,69.42
2018-05-13T06:46:33.387Z,69.31
2018-05-13T06:47:04.980Z,69.38
2018-05-13T06:47:36.600Z,69.32